Time;durP1;ratioP1;P1;durP2;ratioP2;P2;SDS_P1;SDS_P2;PMS_P1;PMS_P2;Temp;Humidity;BMP_temperature;BMP_pressure;BME280_temperature;BME280_humidity;BME280_pressure;Samples;Min_cycle;Max_cycle;Signal;HPM_P1;HPM_P2
2023/07/08 00:03:04;;;;;;;3.35;1.95;;;;;;;14.84;85.71;100931.41;10447803;28;20078;-73
2023/07/08 00:08:14;;;;;;;2.05;1.45;;;;;;;14.83;85.80;100932.53;10480223;28;20049;-72
2023/07/08 00:13:18;;;;;;;1.98;1.70;;;;;;;14.80;85.81;100922.09;10443321;28;20411;-72
2023/07/08 00:18:20;;;;;;;2.03;1.83;;;;;;;14.75;86.19;100921.06;10482584;28;20641;-72
2023/07/08 00:23:23;;;;;;;1.70;1.60;;;;;;;14.81;86.89;100915.44;10484431;28;20491;-72
2023/07/08 00:28:26;;;;;;;2.25;1.90;;;;;;;14.83;86.92;100916.78;10488445;28;20044;-72
2023/07/08 00:33:29;;;;;;;3.05;1.52;;;;;;;14.84;87.04;100901.84;10474096;28;20041;-72
2023/07/08 00:38:32;;;;;;;4.57;2.00;;;;;;;14.92;86.45;100903.91;10462960;28;20048;-72
2023/07/08 00:43:40;;;;;;;4.00;2.15;;;;;;;14.98;86.40;100896.34;10491619;28;20562;-72
2023/07/08 00:48:44;;;;;;;2.92;1.85;;;;;;;15.01;86.30;100895.75;10490783;28;20499;-72
2023/07/08 00:53:47;;;;;;;1.77;1.67;;;;;;;15.00;86.01;100897.69;10472792;28;20045;-72
2023/07/08 00:58:52;;;;;;;4.53;1.73;;;;;;;15.00;85.78;100889.41;10445934;28;20044;-72
2023/07/08 01:04:03;;;;;;;3.17;2.00;;;;;;;14.95;85.59;100894.19;10483246;28;20041;-72
2023/07/08 01:09:07;;;;;;;2.10;1.77;;;;;;;14.94;85.67;100884.28;10437221;28;20048;-72
2023/07/08 01:14:12;;;;;;;2.33;1.90;;;;;;;14.83;85.74;100888.34;10471788;28;20041;-72
2023/07/08 01:19:17;;;;;;;4.20;1.55;;;;;;;14.87;86.00;100879.13;10455640;28;20044;-72
2023/07/08 01:24:19;;;;;;;4.13;1.95;;;;;;;14.90;85.84;100885.97;10465008;28;20056;-72
2023/07/08 01:29:22;;;;;;;2.88;1.58;;;;;;;14.86;86.15;100879.44;10490169;28;20041;-72
2023/07/08 01:34:25;;;;;;;3.80;2.10;;;;;;;14.87;86.04;100886.59;10464993;28;20040;-72
2023/07/08 01:39:29;;;;;;;3.70;1.75;;;;;;;14.83;86.39;100888.34;10480585;28;20041;-72
2023/07/08 01:44:34;;;;;;;2.97;2.05;;;;;;;14.87;86.34;100879.13;10465589;28;20045;-72
2023/07/08 01:49:37;;;;;;;2.92;1.63;;;;;;;14.92;86.32;100881.78;10481222;28;20547;-72
2023/07/08 01:54:40;;;;;;;2.53;1.38;;;;;;;15.06;86.02;100882.63;10471218;28;20041;-72
2023/07/08 01:59:42;;;;;;;3.47;2.58;;;;;;;15.24;85.46;100883.66;10488045;28;20041;-72
2023/07/08 02:04:44;;;;;;;5.60;2.30;;;;;;;15.42;84.54;100883.88;10465165;28;20045;-72
2023/07/08 02:09:48;;;;;;;2.58;1.88;;;;;;;15.46;84.50;100884.94;10486239;28;20048;-72
2023/07/08 02:14:51;;;;;;;3.00;1.67;;;;;;;15.67;83.57;100881.44;10484664;28;20092;-75
2023/07/08 02:19:53;;;;;;;2.38;1.70;;;;;;;15.82;82.99;100885.84;10477528;28;20439;-72
2023/07/08 02:24:56;;;;;;;3.97;1.92;;;;;;;15.80;82.69;100888.09;10460312;28;20399;-72
2023/07/08 02:29:58;;;;;;;3.08;1.80;;;;;;;15.76;82.91;100877.94;10487381;28;20058;-72
2023/07/08 02:35:02;;;;;;;3.90;2.15;;;;;;;15.96;82.67;100883.84;10486817;28;20045;-72
2023/07/08 02:40:06;;;;;;;2.55;1.65;;;;;;;16.18;82.68;100876.72;10476961;28;20040;-72
2023/07/08 02:45:08;;;;;;;4.90;1.73;;;;;;;16.43;81.62;100878.03;10486542;28;20048;-72
2023/07/08 02:50:11;;;;;;;2.92;2.20;;;;;;;16.57;81.01;100887.94;10485002;28;20036;-72
2023/07/08 02:55:13;;;;;;;2.20;1.85;;;;;;;16.50;80.88;100879.25;10486138;28;20442;-72
2023/07/08 03:00:16;;;;;;;2.80;1.73;;;;;;;16.41;81.07;100877.53;10485306;28;20040;-72
2023/07/08 03:05:19;;;;;;;4.00;1.95;;;;;;;16.44;81.28;100871.38;10485280;28;20045;-72
2023/07/08 03:10:21;;;;;;;3.28;1.98;;;;;;;16.36;81.99;100878.50;10468378;28;20041;-72
2023/07/08 03:15:23;;;;;;;3.22;1.80;;;;;;;16.39;81.91;100886.19;10452345;28;20029;-72
2023/07/08 03:20:26;;;;;;;2.03;1.83;;;;;;;16.33;81.70;100876.38;10485830;28;20033;-72
2023/07/08 03:25:29;;;;;;;3.25;1.90;;;;;;;16.28;81.89;100882.81;10485025;28;20650;-72
2023/07/08 03:30:32;;;;;;;4.40;2.15;;;;;;;16.28;81.98;100888.34;10481808;28;20036;-72
2023/07/08 03:35:35;;;;;;;5.22;2.22;;;;;;;16.31;81.73;100870.28;10435534;28;20037;-72
2023/07/08 03:40:37;;;;;;;1.70;1.50;;;;;;;16.23;81.74;100871.06;10483518;28;20037;-72
2023/07/08 03:45:39;;;;;;;5.88;2.45;;;;;;;16.14;82.04;100857.16;10484071;28;20045;-72
2023/07/08 03:50:44;;;;;;;2.67;1.83;;;;;;;16.16;81.80;100865.97;10458987;28;20044;-72
2023/07/08 03:55:46;;;;;;;2.55;1.60;;;;;;;16.37;80.93;100871.00;10447121;28;20045;-72
2023/07/08 04:00:48;;;;;;;3.55;1.75;;;;;;;16.46;80.73;100867.16;10469065;28;20045;-72
2023/07/08 04:05:50;;;;;;;3.33;1.98;;;;;;;16.50;80.52;100868.19;10450134;28;20167;-72
2023/07/08 04:10:53;;;;;;;4.70;1.98;;;;;;;16.56;80.19;100866.91;10468661;28;20041;-72
2023/07/08 04:16:01;;;;;;;5.82;2.72;;;;;;;16.82;79.44;100861.53;10490195;28;20625;-72
2023/07/08 04:21:03;;;;;;;3.17;2.20;;;;;;;16.77;78.99;100858.91;10488586;28;20033;-72
2023/07/08 04:26:05;;;;;;;3.42;1.95;;;;;;;16.76;79.25;100867.56;10472963;28;20061;-72
2023/07/08 04:31:07;;;;;;;3.50;2.10;;;;;;;16.82;79.00;100856.00;10472821;28;20055;-72
2023/07/08 04:36:13;;;;;;;4.30;2.50;;;;;;;16.93;79.02;100861.28;10492841;28;20550;-72
2023/07/08 04:41:15;;;;;;;2.47;2.03;;;;;;;17.04;78.03;100863.47;10489816;28;20053;-72
2023/07/08 04:46:34;;;;;;;2.95;2.08;;;;;;;17.22;77.47;100858.81;10473607;28;20060;-73
2023/07/08 04:51:37;;;;;;;2.33;1.95;;;;;;;17.63;75.86;100852.06;10471907;28;20040;-72
2023/07/08 04:56:41;;;;;;;5.22;2.30;;;;;;;17.72;74.88;100853.78;10491571;28;20041;-72
2023/07/08 05:01:44;;;;;;;3.08;2.05;;;;;;;17.50;74.85;100848.28;10490247;28;20040;-72
2023/07/08 05:06:46;;;;;;;5.43;2.00;;;;;;;17.65;73.61;100855.34;10487129;28;20068;-72
2023/07/08 05:11:49;;;;;;;4.90;2.00;;;;;;;17.82;72.67;100855.41;10461448;28;20040;-72
2023/07/08 05:16:51;;;;;;;5.53;1.90;;;;;;;18.52;71.55;100861.78;10475284;28;20033;-72
2023/07/08 05:21:54;;;;;;;4.57;2.17;;;;;;;18.80;69.36;100860.28;10467840;28;20415;-72
2023/07/08 05:26:56;;;;;;;4.60;2.30;;;;;;;19.13;67.34;100854.13;10485802;28;20427;-72
2023/07/08 05:31:58;;;;;;;4.80;1.95;;;;;;;19.92;64.43;100842.22;10489164;28;20060;-72
2023/07/08 05:37:01;;;;;;;3.30;1.50;;;;;;;19.57;65.31;100853.59;10489219;28;20061;-72
2023/07/08 05:42:03;;;;;;;2.40;1.95;;;;;;;19.65;65.26;100840.78;10489172;28;20407;-72
2023/07/08 05:47:05;;;;;;;2.85;1.33;;;;;;;19.45;65.00;100844.31;10487024;28;20072;-72
2023/07/08 05:52:10;;;;;;;2.97;1.90;;;;;;;20.06;63.80;100841.97;10480087;28;20048;-72
2023/07/08 05:57:13;;;;;;;3.75;1.73;;;;;;;20.00;63.45;100838.56;10480342;28;20053;-72
2023/07/08 06:02:15;;;;;;;5.03;1.80;;;;;;;20.29;62.76;100829.28;10453073;28;20044;-72
2023/07/08 06:07:17;;;;;;;3.22;1.75;;;;;;;20.23;62.63;100827.06;10472968;28;20511;-72
2023/07/08 06:12:19;;;;;;;1.88;1.30;;;;;;;21.23;59.48;100828.63;10484133;28;20041;-72
2023/07/08 06:17:22;;;;;;;2.97;1.60;;;;;;;20.85;59.55;100826.16;10487393;28;20047;-72
2023/07/08 06:22:24;;;;;;;4.93;1.50;;;;;;;20.26;61.58;100818.84;10467634;28;20418;-72
2023/07/08 06:27:27;;;;;;;4.07;2.08;;;;;;;20.51;62.07;100816.19;10440196;28;20053;-72
2023/07/08 06:32:30;;;;;;;1.63;1.23;;;;;;;21.23;59.78;100817.47;10473102;28;20435;-73
2023/07/08 06:37:32;;;;;;;3.72;1.50;;;;;;;22.37;56.73;100816.19;10477838;28;20059;-72
2023/07/08 06:42:34;;;;;;;2.75;1.40;;;;;;;22.91;53.46;100806.47;10475011;28;20049;-73
2023/07/08 06:48:00;;;;;;;3.83;2.00;;;;;;;23.38;52.92;100796.06;10446863;28;20063;-73
2023/07/08 06:53:02;;;;;;;1.75;1.27;;;;;;;23.27;52.19;100797.81;10468110;28;20056;-73
2023/07/08 06:58:04;;;;;;;2.33;1.40;;;;;;;22.81;52.54;100799.41;10461019;28;20048;-73
2023/07/08 07:03:06;;;;;;;6.72;1.70;;;;;;;23.21;52.46;100796.44;10483359;28;20067;-73
2023/07/08 07:08:09;;;;;;;1.40;1.30;;;;;;;24.07;50.89;100790.81;10470544;28;20143;-73
2023/07/08 07:13:11;;;;;;;2.55;1.42;;;;;;;23.75;50.44;100790.13;10481857;28;20041;-73
2023/07/08 07:18:13;;;;;;;1.42;1.33;;;;;;;23.53;50.08;100790.78;10481777;28;20414;-73
2023/07/08 07:23:16;;;;;;;4.50;1.58;;;;;;;24.19;48.72;100782.25;10478397;28;20051;-73
2023/07/08 07:28:19;;;;;;;1.40;1.30;;;;;;;23.13;50.12;100789.88;10478403;28;20044;-73
2023/07/08 07:33:21;;;;;;;1.33;1.23;;;;;;;22.11;52.48;100787.91;10481657;28;20052;-72
2023/07/08 07:38:28;;;;;;;1.73;0.98;;;;;;;21.20;54.37;100788.28;10482302;28;20048;-73
2023/07/08 07:43:30;;;;;;;;;;;;;;;20.95;56.80;100801.38;10464331;28;20041;-72
2023/07/08 07:48:32;;;;;;;2.45;1.40;;;;;;;22.59;52.68;100800.84;10480177;28;19924;-72
2023/07/08 07:53:35;;;;;;;3.55;1.48;;;;;;;23.82;50.23;100795.91;10458462;28;20033;-73
2023/07/08 07:58:37;;;;;;;2.38;1.25;;;;;;;24.87;47.68;100794.78;10466804;28;20048;-72
2023/07/08 08:03:39;;;;;;;3.75;1.50;;;;;;;24.89;47.33;100804.44;10466902;28;20060;-73
2023/07/08 08:08:41;;;;;;;2.38;1.30;;;;;;;23.79;49.06;100802.25;10460288;28;20057;-72
2023/07/08 08:13:43;;;;;;;1.58;1.27;;;;;;;22.89;51.63;100806.03;10478830;28;20056;-74
2023/07/08 08:18:46;;;;;;;1.10;1.00;;;;;;;23.16;50.95;100788.34;10482645;28;20045;-77
2023/07/08 08:23:48;;;;;;;1.63;1.10;;;;;;;23.27;50.62;100794.19;10476683;28;20049;-76
2023/07/08 08:28:50;;;;;;;1.35;1.23;;;;;;;24.02;48.18;100779.91;10468878;28;20036;-74
2023/07/08 08:33:52;;;;;;;2.15;1.30;;;;;;;24.80;47.70;100777.78;10467072;28;20048;-74
2023/07/08 08:38:55;;;;;;;2.75;1.17;;;;;;;25.36;45.98;100760.31;10473783;28;20029;-74
2023/07/08 08:43:58;;;;;;;1.92;1.20;;;;;;;25.73;44.78;100763.25;10472788;28;20045;-73
2023/07/08 08:49:52;;;;;;;3.75;1.33;;;;;;;25.44;44.49;100753.59;10457902;28;20033;-73
2023/07/08 08:54:54;;;;;;;3.05;1.20;;;;;;;24.77;45.45;100768.13;10444239;28;20525;-74
2023/07/08 08:59:57;;;;;;;4.50;1.38;;;;;;;25.11;45.59;100760.72;10472022;28;20438;-73
2023/07/08 09:05:07;;;;;;;1.35;1.20;;;;;;;24.65;45.40;100762.72;10469276;28;20037;-72
2023/07/08 09:10:16;;;;;;;3.17;1.35;;;;;;;23.88;46.51;100757.19;10484756;28;20049;-72
2023/07/08 09:15:18;;;;;;;2.38;1.48;;;;;;;24.06;46.45;100756.34;10479629;28;20056;-72
2023/07/08 09:20:28;;;;;;;2.00;1.58;;;;;;;24.64;46.18;100752.66;10478813;28;20052;-73
2023/07/08 09:25:34;;;;;;;3.53;1.55;;;;;;;25.05;44.66;100747.38;10472025;28;20046;-72
2023/07/08 09:30:36;;;;;;;2.53;1.83;;;;;;;24.85;45.77;100755.06;10449464;28;20040;-72
2023/07/08 09:35:41;;;;;;;1.60;1.48;;;;;;;23.86;48.00;100745.53;10482876;28;20049;-72
2023/07/08 09:40:49;;;;;;;4.22;1.58;;;;;;;23.01;50.05;100747.16;10470915;28;20041;-73
2023/07/08 09:45:52;;;;;;;3.63;1.50;;;;;;;22.98;50.29;100745.91;10467082;28;20475;-73
2023/07/08 09:50:56;;;;;;;3.55;1.60;;;;;;;22.31;51.86;100770.09;10472633;28;20049;-72
2023/07/08 09:56:00;;;;;;;3.30;1.70;;;;;;;21.50;53.35;100762.91;10469615;28;20119;-74
2023/07/08 10:01:10;;;;;;;2.53;1.70;;;;;;;21.03;56.21;100771.75;10468921;28;20495;-74
2023/07/08 10:06:25;;;;;;;3.00;1.50;;;;;;;20.96;57.38;100768.72;10446434;28;20037;-74
2023/07/08 10:11:31;;;;;;;2.13;1.48;;;;;;;21.39;57.59;100753.41;10452451;28;20487;-74
2023/07/08 10:16:34;;;;;;;3.45;1.65;;;;;;;21.88;55.66;100749.31;10486736;28;20495;-74
2023/07/08 10:21:39;;;;;;;2.28;1.90;;;;;;;22.04;55.55;100756.91;10488383;28;20048;-74
2023/07/08 10:26:41;;;;;;;4.32;1.58;;;;;;;22.06;55.54;100760.22;10485777;28;20049;-73
2023/07/08 10:31:44;;;;;;;2.17;1.77;;;;;;;21.56;56.14;100755.91;10479551;28;20399;-75
2023/07/08 10:37:06;;;;;;;2.92;1.50;;;;;;;21.34;56.42;100754.44;10465045;28;20446;-75
2023/07/08 10:42:45;;;;;;;2.75;1.67;;;;;;;21.49;56.20;100752.91;10474050;28;20068;-75
2023/07/08 10:48:01;;;;;;;3.53;2.10;;;;;;;21.52;56.19;100750.25;10462761;28;20416;-74
2023/07/08 10:53:34;;;;;;;4.25;2.13;;;;;;;22.01;55.78;100750.06;10462410;28;20033;-76
2023/07/08 10:58:51;;;;;;;2.63;1.70;;;;;;;21.85;54.23;100758.38;10476984;28;20045;-76
2023/07/08 11:04:08;;;;;;;3.10;1.73;;;;;;;21.55;55.10;100759.88;10463429;28;20048;-76
2023/07/08 11:09:12;;;;;;;;;;;;;;;21.23;56.62;100770.00;10458560;28;20037;-76
2023/07/08 11:14:24;;;;;;;1.85;1.70;;;;;;;20.91;57.19;100777.31;10453827;28;19925;-75
2023/07/08 11:19:35;;;;;;;2.05;1.83;;;;;;;21.03;57.80;100780.13;10472355;28;20051;-78
2023/07/08 11:24:46;;;;;;;3.63;1.80;;;;;;;20.96;56.60;100785.47;10463818;28;20059;-74
2023/07/08 11:29:53;;;;;;;3.65;1.80;;;;;;;21.01;56.67;100790.84;10453904;28;20518;-75
2023/07/08 11:34:55;;;;;;;2.87;2.07;;;;;;;21.12;56.28;100783.59;10460402;28;20037;-75
2023/07/08 11:40:00;;;;;;;3.08;2.00;;;;;;;20.99;57.47;100781.97;10425622;28;20032;-75
2023/07/08 11:45:33;;;;;;;2.10;1.83;;;;;;;20.94;56.68;100780.22;10446778;28;20040;-75
2023/07/08 11:50:38;;;;;;;4.13;1.80;;;;;;;20.67;56.59;100790.09;10461783;28;20048;-75
2023/07/08 11:55:59;;;;;;;3.17;1.58;;;;;;;20.65;55.79;100792.41;10476292;28;20033;-76
2023/07/08 12:01:27;;;;;;;3.70;2.08;;;;;;;20.58;56.06;100794.13;10455970;28;20518;-75
2023/07/08 12:06:30;;;;;;;3.40;1.50;;;;;;;20.83;54.49;100795.00;10476292;28;20037;-74
2023/07/08 12:11:34;;;;;;;1.88;1.45;;;;;;;20.81;55.03;100800.91;10478606;28;20044;-75
2023/07/08 12:16:36;;;;;;;6.38;3.28;;;;;;;20.94;54.27;100793.38;10457525;28;20498;-75
2023/07/08 12:21:40;;;;;;;2.15;1.65;;;;;;;21.13;55.52;100796.41;10486032;28;20037;-75
2023/07/08 12:26:43;;;;;;;1.70;1.38;;;;;;;20.91;54.97;100782.91;10471225;28;20536;-75
2023/07/08 12:31:46;;;;;;;2.72;1.42;;;;;;;20.83;55.93;100786.63;10464997;28;20038;-75
2023/07/08 12:36:48;;;;;;;3.97;1.75;;;;;;;20.86;54.77;100775.59;10465233;28;20037;-75
2023/07/08 12:41:51;;;;;;;5.90;1.60;;;;;;;20.98;54.42;100781.16;10463287;28;20068;-74
2023/07/08 12:46:54;;;;;;;2.40;1.50;;;;;;;21.05;54.46;100769.44;10476752;28;20045;-74
2023/07/08 12:52:02;;;;;;;1.80;1.40;;;;;;;21.11;54.02;100784.78;10477492;28;20040;-75
2023/07/08 12:57:05;;;;;;;2.15;1.58;;;;;;;21.18;53.18;100779.44;10470187;28;20033;-74
2023/07/08 13:02:27;;;;;;;3.88;1.70;;;;;;;21.20;53.18;100762.34;10450556;28;20056;-76
2023/07/08 13:07:34;;;;;;;2.17;1.52;;;;;;;21.10;53.13;100768.38;10455495;28;20060;-77
2023/07/08 13:12:39;;;;;;;2.50;1.38;;;;;;;20.84;54.19;100768.72;10488186;28;20033;-78
2023/07/08 13:17:41;;;;;;;4.22;1.90;;;;;;;20.45;55.01;100766.19;10480695;28;20041;-74
2023/07/08 13:22:51;;;;;;;3.63;1.77;;;;;;;20.27;54.82;100752.75;10469891;28;20045;-75
2023/07/08 13:27:58;;;;;;;1.58;1.30;;;;;;;20.16;55.21;100747.63;10458508;28;20061;-75
2023/07/08 13:33:01;;;;;;;3.47;1.50;;;;;;;20.35;55.96;100743.50;10430847;28;20053;-75
2023/07/08 13:38:03;;;;;;;1.30;1.20;;;;;;;20.48;54.34;100750.78;10448720;28;20053;-75
2023/07/08 13:43:06;;;;;;;1.33;1.23;;;;;;;20.55;54.12;100751.03;10447717;28;20499;-75
2023/07/08 13:48:18;;;;;;;1.75;1.35;;;;;;;20.61;53.94;100746.03;10454296;28;20492;-75
2023/07/08 13:53:42;;;;;;;1.98;1.27;;;;;;;20.60;53.47;100750.78;10431423;28;20045;-74
2023/07/08 13:58:48;;;;;;;1.67;1.20;;;;;;;20.66;52.74;100743.84;10430791;28;20041;-74
2023/07/08 14:03:52;;;;;;;2.40;2.00;;;;;;;20.68;52.71;100741.53;10430499;28;20420;-74
2023/07/08 14:08:58;;;;;;;2.60;1.50;;;;;;;20.57;52.47;100745.91;10414380;28;20041;-74
2023/07/08 14:14:00;;;;;;;2.22;1.33;;;;;;;20.63;52.72;100738.94;10447623;28;20419;-74
2023/07/08 14:19:03;;;;;;;4.40;1.95;;;;;;;20.68;53.53;100738.72;10447167;28;20049;-74
2023/07/08 14:24:13;;;;;;;4.00;1.52;;;;;;;20.71;53.46;100745.59;10447107;28;20064;-74
2023/07/08 14:29:15;;;;;;;5.03;1.70;;;;;;;20.52;55.17;100746.13;10447804;28;20037;-74
2023/07/08 14:34:23;;;;;;;2.85;1.90;;;;;;;20.29;57.97;100745.69;10446715;28;20049;-74
2023/07/08 14:39:26;;;;;;;1.73;1.60;;;;;;;20.12;58.11;100740.28;10429083;28;20037;-74
2023/07/08 14:44:33;;;;;;;3.38;1.90;;;;;;;19.92;60.04;100741.97;10445414;28;20049;-75
2023/07/08 14:49:36;;;;;;;2.25;1.90;;;;;;;19.78;60.51;100741.41;10446686;28;20534;-74
2023/07/08 14:54:38;;;;;;;4.00;2.10;;;;;;;19.66;61.14;100733.84;10486269;28;20415;-74
2023/07/08 14:59:40;;;;;;;3.58;2.47;;;;;;;19.68;60.67;100733.50;10469482;28;20507;-74
2023/07/08 15:04:43;;;;;;;4.63;2.78;;;;;;;19.50;60.30;100728.03;10486669;28;20529;-74
2023/07/08 15:09:45;;;;;;;4.00;1.83;;;;;;;19.50;59.79;100725.25;10487280;28;20063;-74
2023/07/08 15:14:47;;;;;;;3.10;1.73;;;;;;;19.58;58.96;100735.53;10486677;28;20043;-74
2023/07/08 15:19:50;;;;;;;3.50;2.40;;;;;;;19.77;57.50;100729.47;10465372;28;20041;-74
2023/07/08 15:24:52;;;;;;;1.70;1.60;;;;;;;19.75;58.15;100723.44;10463495;28;20049;-76
2023/07/08 15:29:55;;;;;;;2.38;1.50;;;;;;;19.82;57.83;100717.34;10474525;28;20069;-77
2023/07/08 15:34:57;;;;;;;3.60;1.70;;;;;;;19.87;58.17;100717.94;10445672;28;20401;-75
2023/07/08 15:39:59;;;;;;;2.97;2.25;;;;;;;19.90;59.59;100713.63;10461703;28;20045;-74
2023/07/08 15:45:22;;;;;;;3.28;2.15;;;;;;;19.82;60.32;100714.53;10477958;28;20045;-76
2023/07/08 15:50:26;;;;;;;3.92;1.92;;;;;;;20.13;60.99;100717.69;10482531;28;20403;-76
2023/07/08 15:55:30;;;;;;;10.50;3.00;;;;;;;20.07;62.00;100727.41;10466826;28;20048;-75
2023/07/08 16:00:34;;;;;;;3.85;2.22;;;;;;;19.90;63.34;100741.50;10449926;28;20037;-75
2023/07/08 16:05:37;;;;;;;1.88;1.70;;;;;;;19.72;64.13;100732.47;10452305;28;20044;-76
2023/07/08 16:10:39;;;;;;;3.38;2.25;;;;;;;19.74;64.54;100740.47;10473777;28;20037;-75
2023/07/08 16:15:42;;;;;;;5.43;2.35;;;;;;;19.61;65.14;100750.72;10451515;28;20034;-78
2023/07/08 16:20:44;;;;;;;4.25;2.30;;;;;;;19.40;65.59;100752.66;10475689;28;20037;-73
2023/07/08 16:25:48;;;;;;;4.22;1.95;;;;;;;19.27;66.48;100765.69;10476982;28;20052;-73
2023/07/08 16:30:50;;;;;;;3.80;2.78;;;;;;;19.23;67.04;100759.16;10463728;28;20045;-73
2023/07/08 16:35:53;;;;;;;4.47;2.15;;;;;;;18.91;67.85;100753.09;10465920;28;20075;-73
2023/07/08 16:40:56;;;;;;;9.18;3.55;;;;;;;18.77;68.57;100758.09;10456190;28;20065;-77
2023/07/08 16:45:58;;;;;;;4.03;2.63;;;;;;;18.66;69.78;100756.81;10462682;28;20048;-75
2023/07/08 16:51:00;;;;;;;6.03;3.10;;;;;;;18.73;69.91;100768.22;10480676;28;20045;-73
2023/07/08 16:56:03;;;;;;;4.03;2.72;;;;;;;18.76;70.41;100759.25;10451223;28;20033;-73
2023/07/08 17:01:10;;;;;;;5.90;3.50;;;;;;;18.83;70.22;100758.72;10480451;28;20033;-74
2023/07/08 17:06:13;;;;;;;3.40;2.35;;;;;;;19.00;69.26;100766.16;10467679;28;20040;-74
2023/07/08 17:11:16;;;;;;;4.38;3.00;;;;;;;18.91;68.76;100761.44;10480934;28;20045;-74
2023/07/08 17:16:26;;;;;;;4.00;2.70;;;;;;;18.72;69.22;100763.81;10469236;28;20411;-73
2023/07/08 17:21:28;;;;;;;5.68;3.00;;;;;;;18.79;68.87;100763.31;10485095;28;20392;-74
2023/07/08 17:26:31;;;;;;;6.20;3.80;;;;;;;18.75;68.91;100770.69;10490219;28;20064;-74
2023/07/08 17:31:33;;;;;;;6.32;3.38;;;;;;;18.79;69.27;100772.47;10489782;28;20048;-74
2023/07/08 17:36:36;;;;;;;5.10;3.00;;;;;;;18.93;68.44;100761.13;10489403;28;20048;-74
2023/07/08 17:41:39;;;;;;;3.80;3.00;;;;;;;18.77;68.41;100771.19;10488059;28;20698;-74
2023/07/08 17:46:41;;;;;;;2.78;2.45;;;;;;;18.62;68.54;100766.94;10472199;28;20095;-74
2023/07/08 17:51:44;;;;;;;4.85;2.35;;;;;;;18.55;68.53;100767.44;10472311;28;20048;-74
2023/07/08 17:56:47;;;;;;;4.20;2.35;;;;;;;18.62;69.03;100764.97;10489195;28;20430;-74
2023/07/08 18:01:50;;;;;;;4.15;2.80;;;;;;;18.55;69.75;100761.88;10470152;28;20052;-74
2023/07/08 18:06:52;;;;;;;3.67;2.45;;;;;;;18.43;70.94;100769.28;10471164;28;20052;-73
2023/07/08 18:11:55;;;;;;;4.50;2.13;;;;;;;18.51;70.69;100765.66;10488654;28;20087;-74
2023/07/08 18:16:58;;;;;;;5.05;2.63;;;;;;;18.53;70.43;100764.19;10485949;28;20447;-74
2023/07/08 18:22:02;;;;;;;2.70;2.05;;;;;;;18.27;71.15;100766.22;10470358;28;20037;-74
2023/07/08 18:27:04;;;;;;;4.43;2.70;;;;;;;18.12;71.79;100767.53;10470115;28;20431;-74
2023/07/08 18:32:10;;;;;;;4.57;2.40;;;;;;;18.13;72.25;100771.94;10487328;28;20415;-74
2023/07/08 18:37:12;;;;;;;2.92;1.98;;;;;;;18.28;71.77;100767.84;10470067;28;20043;-74
2023/07/08 18:42:15;;;;;;;3.20;2.35;;;;;;;18.29;71.81;100759.19;10488006;28;20059;-74
2023/07/08 18:47:17;;;;;;;4.53;2.60;;;;;;;18.35;71.32;100757.03;10487360;28;20044;-74
2023/07/08 18:52:19;;;;;;;3.28;2.20;;;;;;;18.31;71.51;100756.06;10486124;28;20037;-74
2023/07/08 18:57:23;;;;;;;3.72;2.60;;;;;;;18.35;71.32;100754.25;10482874;28;20052;-74
2023/07/08 19:02:34;;;;;;;3.67;2.50;;;;;;;18.08;72.22;100764.63;10481551;28;20037;-74
2023/07/08 19:07:36;;;;;;;4.15;2.40;;;;;;;17.82;72.98;100765.75;10482684;28;20057;-74
2023/07/08 19:12:38;;;;;;;3.80;2.30;;;;;;;17.46;74.53;100772.41;10486423;28;20052;-74
2023/07/08 19:17:40;;;;;;;4.00;2.72;;;;;;;17.87;73.19;100769.19;10486677;28;20041;-74
2023/07/08 19:22:44;;;;;;;3.83;2.20;;;;;;;17.74;72.83;100773.78;10469032;28;20045;-74
2023/07/08 19:27:46;;;;;;;3.35;2.20;;;;;;;17.74;72.66;100765.44;10426886;28;20064;-74
2023/07/08 19:32:55;;;;;;;5.15;1.90;;;;;;;17.61;72.47;100766.38;10486062;28;20049;-74
2023/07/08 19:37:57;;;;;;;3.13;1.90;;;;;;;17.90;71.60;100771.31;10451474;28;20565;-74
2023/07/08 19:42:59;;;;;;;7.15;2.20;;;;;;;17.98;70.89;100759.38;10466067;28;20037;-73
2023/07/08 19:48:01;;;;;;;3.83;1.98;;;;;;;18.15;70.76;100764.09;10448052;28;20049;-74
2023/07/08 19:53:05;;;;;;;3.53;2.10;;;;;;;18.45;69.25;100770.59;10443115;28;20037;-73
2023/07/08 19:58:11;;;;;;;2.88;2.05;;;;;;;18.48;68.79;100769.09;10485169;28;20069;-74
2023/07/08 20:03:14;;;;;;;3.28;2.10;;;;;;;18.53;68.51;100769.72;10484803;28;20045;-73
2023/07/08 20:08:17;;;;;;;4.15;2.30;;;;;;;18.37;69.36;100775.00;10484800;28;20573;-74
2023/07/08 20:13:21;;;;;;;3.97;2.60;;;;;;;18.72;68.06;100777.72;10484862;28;20040;-72
2023/07/08 20:18:31;;;;;;;3.60;2.25;;;;;;;18.50;68.57;100777.91;10484699;28;20411;-73
2023/07/08 20:23:34;;;;;;;4.78;2.25;;;;;;;18.28;69.70;100771.44;10431263;28;20037;-73
2023/07/08 20:28:36;;;;;;;4.38;2.40;;;;;;;18.43;69.55;100759.00;10425503;28;20068;-73
2023/07/08 20:33:38;;;;;;;3.67;1.92;;;;;;;18.35;70.83;100770.91;10473809;28;20033;-73
2023/07/08 20:38:40;;;;;;;2.20;2.00;;;;;;;18.62;69.51;100766.94;10466640;28;20047;-73
2023/07/08 20:43:44;;;;;;;2.45;2.05;;;;;;;18.68;69.62;100768.41;10492435;28;20102;-73
2023/07/08 20:48:46;;;;;;;2.92;1.65;;;;;;;18.43;70.29;100764.56;10474529;28;20044;-73
2023/07/08 20:53:53;;;;;;;3.88;1.80;;;;;;;18.67;70.36;100764.00;10492293;28;20044;-74
2023/07/08 20:58:55;;;;;;;2.95;1.90;;;;;;;18.92;69.09;100759.50;10474479;28;20041;-74
2023/07/08 21:03:57;;;;;;;4.03;2.60;;;;;;;18.82;69.19;100760.69;10462698;28;20547;-74
2023/07/08 21:09:01;;;;;;;3.45;2.05;;;;;;;18.83;69.46;100759.53;10449881;28;20049;-74
2023/07/08 21:14:03;;;;;;;4.15;2.40;;;;;;;18.87;69.08;100766.03;10450412;28;20048;-74
2023/07/08 21:19:08;;;;;;;3.47;2.50;;;;;;;18.72;70.10;100766.59;10453096;28;20049;-74
2023/07/08 21:24:13;;;;;;;5.13;3.00;;;;;;;18.53;71.07;100774.47;10438508;28;20053;-74
2023/07/08 21:29:15;;;;;;;3.67;2.92;;;;;;;18.35;72.01;100771.75;10465936;28;20537;-74
2023/07/08 21:34:17;;;;;;;5.10;3.25;;;;;;;18.13;72.77;100766.41;10464178;28;20049;-74
2023/07/08 21:39:27;;;;;;;4.53;2.53;;;;;;;18.04;74.11;100769.16;10489142;28;20052;-74
2023/07/08 21:44:29;;;;;;;7.13;3.15;;;;;;;18.30;72.78;100766.38;10488613;28;20048;-74
2023/07/08 21:49:31;;;;;;;3.67;2.30;;;;;;;18.16;73.39;100764.91;10480477;28;20040;-73
2023/07/08 21:54:33;;;;;;;4.88;3.58;;;;;;;17.93;74.20;100770.66;10478201;28;20048;-73
2023/07/08 21:59:37;;;;;;;5.03;2.75;;;;;;;18.15;73.83;100766.06;10489947;28;20053;-73
2023/07/08 22:04:39;;;;;;;5.20;2.58;;;;;;;18.35;73.20;100768.97;10488962;28;20059;-73
2023/07/08 22:09:41;;;;;;;9.13;2.70;;;;;;;18.56;72.48;100762.69;10465043;28;20041;-73
2023/07/08 22:14:43;;;;;;;3.53;2.05;;;;;;;18.62;71.91;100758.59;10459984;28;20045;-73
2023/07/08 22:19:45;;;;;;;3.75;2.63;;;;;;;18.79;72.08;100761.34;10457966;28;20128;-73
2023/07/08 22:24:47;;;;;;;4.68;2.58;;;;;;;18.96;71.35;100769.63;10453021;28;20056;-72
2023/07/08 22:29:50;;;;;;;4.68;2.67;;;;;;;18.78;71.72;100765.28;10460220;28;20053;-73
2023/07/08 22:34:52;;;;;;;3.88;2.40;;;;;;;18.62;72.40;100764.97;10450276;28;20052;-73
2023/07/08 22:39:54;;;;;;;3.47;2.38;;;;;;;18.65;72.22;100771.88;10441875;28;20060;-73
2023/07/08 22:44:58;;;;;;;4.97;2.90;;;;;;;18.83;71.83;100779.00;10476347;28;20045;-73
2023/07/08 22:50:03;;;;;;;5.15;2.47;;;;;;;18.64;73.26;100771.03;10453604;28;20041;-73
2023/07/08 22:55:17;;;;;;;3.92;2.50;;;;;;;18.84;71.76;100774.25;10472873;28;20044;-73
2023/07/08 23:00:22;;;;;;;2.92;2.63;;;;;;;18.65;72.99;100777.41;10486037;28;20037;-73
2023/07/08 23:05:27;;;;;;;5.00;2.88;;;;;;;18.70;72.68;100780.00;10486993;28;20041;-73
2023/07/08 23:10:29;;;;;;;4.88;2.97;;;;;;;18.48;73.17;100781.03;10467068;28;20043;-73
2023/07/08 23:15:31;;;;;;;3.50;2.50;;;;;;;18.52;73.44;100790.34;10468386;28;20048;-73
2023/07/08 23:20:34;;;;;;;3.22;2.80;;;;;;;18.56;73.93;100787.69;10475683;28;20036;-74